Pagina principale
METAR-TAF:

METAR-TAF

Aeroporti :

Milano, Italia

Aeroporto di Milano-Linate

latitudine: 45-26N, longitudine: 009-17E, altezza: 107 m

Osservazione

Il bollettino è stato emesso 19 minuti fa, alle 13:20 UTC
Vento 4 kt da direzioni variabili
Temperature 20°C
Umidità 46%
Pressione 1011 hPa
Visibilità 10 km o più
Poco nuvoloso ad un'altezza di 3500 ft

METAR: LIML 191320Z VRB04KT 9999 FEW035 20/08 Q1011 NOSIG

Ora: 15:39 (13:39 UTC)

Previsione

Il bollettino è stato emesso 2 ore e 39 minuti fa, alle 11:00 UTC
Previsione valida dal 19 alle 12 UTC al 20 alle 12 UTC
Vento 5 kt da direzioni variabili
Visibilità 10 km o più
Nubi sparse ad un'altezza di 7000 ft
Temporaneamente
dal 20 alle 02 UTC al 20 alle 06 UTC
Visibilità: 3500 m
foschia

TAF: LIML 191100Z 1912/2012 VRB05KT 9999 SCT070 TEMPO 2002/2006 3500 BR

Osservazioni e previsioni meteorologiche di più di 4000 aeroporti (messaggi METAR e TAF).

Le stazioni disponibili sono rappresentate dai dischi gialli e rossi sulla carta.

Puntare il mouse per vedere il nome della stazione.

Clicca sopra per visualizzare le osservazioni e previsioni meteorologiche.

Per cambiare la mappa : fare clic sui pulsanti verdi con una croce nera per ingrandire, il pulsante verde con un trattino per diminuire, o sulla freccia verde per le mappe adiacenti.


METAR-TAF: